Pagrindinis puslapis
METAR-TAF:

METAR-TAF

Oro uostai :

Kerdla, Estija

platuma: 58-59N, ilguma: 022-49E, Aukštis: 5 m

Dabartinis oras

Ataskaita buvo paskelbta 41 minutes, ne 04:20 UTC
Vėjas 8 kt iš Pietų/Pietryčių
Temperatūra 24°C
Drėgmė 74%
Slėgis 1010 hPa
Matomumas 10 km arba daugiau
nėra debesų žemiau 1500 m ir nėra kamuolinių lietaus debesų

METAR: EEKA 220420Z 15008KT CAVOK 24/19 Q1010

Laikas: 08:01 (05:01 UTC)

Prognozė

Ataskaita buvo paskelbta 2 valandos ir 1 minutes, ne 03:00 UTC
Prognozė galioja nuo 22 metu 04 UTC su 22 metu 10 UTC
Vėjas 10 kt iš Pietų/Pietryčių
Matomumas 10 km arba daugiau
nėra debesų žemiau 1500 m ir nėra kamuolinių lietaus debesų
Laikinai
nuo 22 metu 07 UTC su 22 metu 10 UTC
Išsisklaidę debesys ne aukštis 3000 ft, Liūtiniai kamuoliniai debesys.

TAF: EEKA 220300Z 2204/2210 15010KT CAVOK TEMPO 2207/2210 SCT030CB

Orai ataskaitas ir orų prognozės (METAR, TAF).

turimą stotys yra geltonos ir raudonos taškus žemėlapyje.

Perkelti pele per norėdami pamatyti stoties vardą.

Tada spustelėkite, norėdami matyti oro stebėjimo ir prognozės.

Norėdami pakeisti žemėlapį: spustelėkite ant žalios mygtukų su juodo kryžiaus žemyn,; žalią mygtuką su brūkšneliu, jei norite nutolinti; arba žalių rodyklių gretimoms žemėlapius.


METAR-TAF: